Time;durP1;ratioP1;P1;durP2;ratioP2;P2;SDS_P1;SDS_P2;PMS_P1;PMS_P2;Temp;Humidity;BMP_temperature;BMP_pressure;BME280_temperature;BME280_humidity;BME280_pressure;Samples;Min_cycle;Max_cycle;Signal;HPM_P1;HPM_P2
2023/08/21 00:00:52;;;;;;;;;;;25.20;71.90;;;;;;5029262;28;19916;-55
2023/08/21 00:03:17;;;;;;;;;;;25.20;72.30;;;;;;5031272;28;19924;-54
2023/08/21 00:05:43;;;;;;;;;;;25.20;72.30;;;;;;5029749;28;19916;-54
2023/08/21 00:08:08;;;;;;;;;;;25.20;72.20;;;;;;5031865;28;19913;-55
2023/08/21 00:10:37;;;;;;;;;;;25.30;72.20;;;;;;5028697;28;19917;-55
2023/08/21 00:13:02;;;;;;;;;;;25.30;72.10;;;;;;5035687;28;19920;-55
2023/08/21 00:15:28;;;;;;;;;;;25.30;72.00;;;;;;5032980;28;20343;-55
2023/08/21 00:17:53;;;;;;;;;;;25.30;72.20;;;;;;5034602;28;19975;-55
2023/08/21 00:20:19;;;;;;;;;;;25.30;71.90;;;;;;5032430;28;19917;-55
2023/08/21 00:22:44;;;;;;;;;;;25.30;72.20;;;;;;5036367;28;20328;-54
2023/08/21 00:25:09;;;;;;;;;;;25.30;72.00;;;;;;5030095;28;20314;-55
2023/08/21 00:27:35;;;;;;;;;;;25.30;72.10;;;;;;5034822;28;19917;-55
2023/08/21 00:30:00;;;;;;;;;;;25.30;72.10;;;;;;5033912;28;20320;-55
2023/08/21 00:32:26;;;;;;;;;;;25.30;72.10;;;;;;5034098;28;19995;-55
2023/08/21 00:34:51;;;;;;;;;;;25.40;72.10;;;;;;5034404;28;19974;-55
2023/08/21 00:37:17;;;;;;;;;;;25.30;72.10;;;;;;5035019;28;19913;-54
2023/08/21 00:39:42;;;;;;;;;;;25.40;72.10;;;;;;5018260;28;19913;-55
2023/08/21 00:42:08;;;;;;;;;;;25.30;72.00;;;;;;5015932;28;19941;-55
2023/08/21 00:44:33;;;;;;;;;;;25.30;72.20;;;;;;5016893;28;19909;-54
2023/08/21 00:46:59;;;;;;;;;;;25.30;72.20;;;;;;5013415;28;19923;-55
2023/08/21 00:49:24;;;;;;;;;;;25.30;72.10;;;;;;5032066;28;19971;-54
2023/08/21 00:51:50;;;;;;;;;;;25.30;72.10;;;;;;5032619;28;20020;-55
2023/08/21 00:54:15;;;;;;;;;;;25.30;72.30;;;;;;5018412;28;19919;-55
2023/08/21 00:56:41;;;;;;;;;;;25.30;72.30;;;;;;5035297;28;20396;-55
2023/08/21 00:59:06;;;;;;;;;;;25.30;72.30;;;;;;5032893;28;19915;-55
2023/08/21 01:01:32;;;;;;;;;;;25.30;72.30;;;;;;5030538;28;19920;-54
2023/08/21 01:03:57;;;;;;;;;;;25.20;72.20;;;;;;5034017;28;20356;-55
2023/08/21 01:06:23;;;;;;;;;;;25.30;72.40;;;;;;5015970;28;20323;-55
2023/08/21 01:09:03;;;;;;;;;;;25.30;73.00;;;;;;5010582;28;20327;-55
2023/08/21 01:11:41;;;;;;;;;;;25.20;72.30;;;;;;5034361;28;20300;-55
2023/08/21 01:14:08;;;;;;;;;;;25.20;72.30;;;;;;5032352;28;19909;-55
2023/08/21 01:16:33;;;;;;;;;;;25.20;72.30;;;;;;5032827;28;19917;-55
2023/08/21 01:18:59;;;;;;;;;;;25.20;72.30;;;;;;5034135;28;19913;-55
2023/08/21 01:21:25;;;;;;;;;;;25.20;72.40;;;;;;5010715;28;19917;-55
2023/08/21 01:23:50;;;;;;;;;;;25.20;72.30;;;;;;5014773;28;19917;-55
2023/08/21 01:26:15;;;;;;;;;;;25.20;73.00;;;;;;5029180;28;19913;-55
2023/08/21 01:28:41;;;;;;;;;;;25.20;72.20;;;;;;5018652;28;20009;-55
2023/08/21 01:31:08;;;;;;;;;;;25.20;72.30;;;;;;5011383;28;19917;-55
2023/08/21 01:33:35;;;;;;;;;;;25.20;72.30;;;;;;5014332;28;19920;-55
2023/08/21 01:36:00;;;;;;;;;;;25.20;72.30;;;;;;5017564;28;19964;-55
2023/08/21 01:38:26;;;;;;;;;;;25.20;72.40;;;;;;5019271;28;19914;-55
2023/08/21 01:40:51;;;;;;;;;;;25.20;72.30;;;;;;5030010;28;19917;-55
2023/08/21 01:43:17;;;;;;;;;;;25.20;72.50;;;;;;5033806;28;19917;-55
2023/08/21 01:45:42;;;;;;;;;;;25.10;72.50;;;;;;5032225;28;20372;-55
2023/08/21 01:48:08;;;;;;;;;;;25.10;72.50;;;;;;5030922;28;19913;-55
2023/08/21 01:50:33;;;;;;;;;;;25.10;72.60;;;;;;5012298;28;19975;-56
2023/08/21 01:52:59;;;;;;;;;;;25.10;72.30;;;;;;5033159;28;19921;-55
2023/08/21 01:55:24;;;;;;;;;;;25.10;72.30;;;;;;5033928;28;19925;-54
2023/08/21 01:57:49;;;;;;;;;;;25.10;72.40;;;;;;5034810;28;19910;-55
2023/08/21 02:00:15;;;;;;;;;;;25.10;72.50;;;;;;5032307;28;19960;-55
2023/08/21 02:02:40;;;;;;;;;;;25.10;72.60;;;;;;5014820;28;19921;-55
2023/08/21 02:05:06;;;;;;;;;;;25.10;72.50;;;;;;5030388;28;19909;-55
2023/08/21 02:07:31;;;;;;;;;;;25.10;72.60;;;;;;5033175;28;19920;-55
2023/08/21 02:09:57;;;;;;;;;;;25.00;72.70;;;;;;5033456;28;19910;-55
2023/08/21 02:12:22;;;;;;;;;;;25.00;72.70;;;;;;5032866;28;19910;-56
2023/08/21 02:14:48;;;;;;;;;;;25.00;72.90;;;;;;5028402;28;19920;-55
2023/08/21 02:17:14;;;;;;;;;;;24.90;73.00;;;;;;5029878;28;19917;-54
2023/08/21 02:19:39;;;;;;;;;;;24.90;73.00;;;;;;5028487;28;19939;-54
2023/08/21 02:22:04;;;;;;;;;;;24.90;73.10;;;;;;5033881;28;19956;-55
2023/08/21 02:24:30;;;;;;;;;;;24.80;73.20;;;;;;5033627;28;20008;-55
2023/08/21 02:26:55;;;;;;;;;;;24.80;73.30;;;;;;5031958;28;20377;-55
2023/08/21 02:29:21;;;;;;;;;;;24.80;73.50;;;;;;5031655;28;20365;-55
2023/08/21 02:31:46;;;;;;;;;;;24.70;73.60;;;;;;5031687;28;20388;-55
2023/08/21 02:34:12;;;;;;;;;;;24.70;73.60;;;;;;5029230;28;19913;-55
2023/08/21 02:36:37;;;;;;;;;;;24.80;73.60;;;;;;5032585;28;20004;-55
2023/08/21 02:39:03;;;;;;;;;;;24.70;73.50;;;;;;5032260;28;20317;-55
2023/08/21 02:41:29;;;;;;;;;;;24.70;73.60;;;;;;5032139;28;20357;-55
2023/08/21 02:43:54;;;;;;;;;;;24.70;73.50;;;;;;5032180;28;19917;-55
2023/08/21 02:46:20;;;;;;;;;;;24.70;73.50;;;;;;5029337;28;19993;-55
2023/08/21 02:48:45;;;;;;;;;;;24.70;73.40;;;;;;5026297;28;19913;-55
2023/08/21 02:51:11;;;;;;;;;;;24.70;73.50;;;;;;5032452;28;20301;-55
2023/08/21 02:53:36;;;;;;;;;;;24.70;73.70;;;;;;5032756;28;19917;-55
2023/08/21 02:56:02;;;;;;;;;;;24.70;73.60;;;;;;5031121;28;19921;-55
2023/08/21 02:58:27;;;;;;;;;;;24.60;73.50;;;;;;5032363;28;19920;-55
2023/08/21 03:00:53;;;;;;;;;;;24.60;73.60;;;;;;5030417;28;19995;-55
2023/08/21 03:03:18;;;;;;;;;;;24.60;73.40;;;;;;5025634;28;19917;-55
2023/08/21 03:05:44;;;;;;;;;;;24.60;73.60;;;;;;5027903;28;20039;-56
2023/08/21 03:08:09;;;;;;;;;;;24.60;73.40;;;;;;5013092;28;19968;-55
2023/08/21 03:10:36;;;;;;;;;;;24.50;73.60;;;;;;5012805;28;19913;-55
2023/08/21 03:13:02;;;;;;;;;;;24.60;73.40;;;;;;4995065;28;19960;-55
2023/08/21 03:15:28;;;;;;;;;;;24.50;73.20;;;;;;5029002;28;19921;-55
2023/08/21 03:17:54;;;;;;;;;;;24.50;73.10;;;;;;5029502;28;19936;-55
2023/08/21 03:20:19;;;;;;;;;;;24.50;73.10;;;;;;5031820;28;19917;-54
2023/08/21 03:22:45;;;;;;;;;;;24.50;73.10;;;;;;5026871;28;19914;-55
2023/08/21 03:25:10;;;;;;;;;;;24.40;73.00;;;;;;5019998;28;19995;-55
2023/08/21 03:27:39;;;;;;;;;;;24.40;73.20;;;;;;5040375;28;19932;-55
2023/08/21 03:30:08;;;;;;;;;;;24.50;73.00;;;;;;5028907;28;19917;-55
2023/08/21 03:32:33;;;;;;;;;;;24.50;73.00;;;;;;5024883;28;19920;-55
2023/08/21 03:34:59;;;;;;;;;;;24.40;72.70;;;;;;5031667;28;20298;-55
2023/08/21 03:37:24;;;;;;;;;;;24.40;72.50;;;;;;5014733;28;19963;-55
2023/08/21 03:39:49;;;;;;;;;;;24.40;72.70;;;;;;5026791;28;19917;-55
2023/08/21 03:42:15;;;;;;;;;;;24.40;72.80;;;;;;5029603;28;19924;-54
2023/08/21 03:44:40;;;;;;;;;;;24.40;72.70;;;;;;5031392;28;20292;-55
2023/08/21 03:47:06;;;;;;;;;;;24.30;72.50;;;;;;5018998;28;19921;-55
2023/08/21 03:49:31;;;;;;;;;;;24.30;72.70;;;;;;5028222;28;19921;-55
2023/08/21 03:51:57;;;;;;;;;;;24.40;72.50;;;;;;5031977;28;19913;-55
2023/08/21 03:54:22;;;;;;;;;;;24.30;72.20;;;;;;5031354;28;20348;-56
2023/08/21 03:56:48;;;;;;;;;;;24.30;72.10;;;;;;5027760;28;19917;-55
2023/08/21 03:59:13;;;;;;;;;;;24.30;72.40;;;;;;5030216;28;19955;-54
2023/08/21 04:01:39;;;;;;;;;;;24.20;72.30;;;;;;5027680;28;20039;-55
2023/08/21 04:04:04;;;;;;;;;;;24.10;72.40;;;;;;5030802;28;19924;-55
2023/08/21 04:06:29;;;;;;;;;;;24.10;72.50;;;;;;5013708;28;20291;-55
2023/08/21 04:08:55;;;;;;;;;;;24.10;72.10;;;;;;5031881;28;19918;-55
2023/08/21 04:11:20;;;;;;;;;;;24.10;72.10;;;;;;5013553;28;19921;-55
2023/08/21 04:13:46;;;;;;;;;;;24.10;72.20;;;;;;5014255;28;20024;-53
2023/08/21 04:16:12;;;;;;;;;;;24.10;72.30;;;;;;5024463;28;19967;-55
2023/08/21 04:18:38;;;;;;;;;;;24.10;72.10;;;;;;5031394;28;19910;-55
2023/08/21 04:21:04;;;;;;;;;;;24.10;72.30;;;;;;5032116;28;19916;-55
2023/08/21 04:23:29;;;;;;;;;;;24.10;72.10;;;;;;5032015;28;19913;-55
2023/08/21 04:26:00;;;;;;;;;;;24.20;72.20;;;;;;5039305;28;19935;-55
2023/08/21 04:28:25;;;;;;;;;;;24.10;72.00;;;;;;5048075;28;20669;-55
2023/08/21 04:30:51;;;;;;;;;;;24.10;72.10;;;;;;5047610;28;19924;-55
2023/08/21 04:33:16;;;;;;;;;;;24.10;72.20;;;;;;5051461;28;19959;-55
2023/08/21 04:35:41;;;;;;;;;;;24.10;72.10;;;;;;5051761;28;19944;-55
2023/08/21 04:38:07;;;;;;;;;;;24.10;72.20;;;;;;5051655;28;19963;-55
2023/08/21 04:40:32;;;;;;;;;;;24.10;72.30;;;;;;5050436;28;19917;-55
2023/08/21 04:42:58;;;;;;;;;;;24.10;72.30;;;;;;5046976;28;19913;-55
2023/08/21 04:45:23;;;;;;;;;;;24.10;72.30;;;;;;5050082;28;19921;-55
2023/08/21 04:47:49;;;;;;;;;;;24.10;72.60;;;;;;5046698;28;19929;-55
2023/08/21 04:50:15;;;;;;;;;;;24.10;72.10;;;;;;5031086;28;20015;-55
2023/08/21 04:52:41;;;;;;;;;;;24.10;72.30;;;;;;5031992;28;20401;-55
2023/08/21 04:55:07;;;;;;;;;;;24.10;72.40;;;;;;5036864;28;19959;-55
2023/08/21 04:57:32;;;;;;;;;;;24.10;72.20;;;;;;5045851;28;19909;-55
2023/08/21 04:59:57;;;;;;;;;;;24.10;72.40;;;;;;5054038;28;19956;-55
2023/08/21 05:02:23;;;;;;;;;;;24.10;72.30;;;;;;5053892;28;19916;-55
2023/08/21 05:04:49;;;;;;;;;;;24.10;72.10;;;;;;5052786;28;19993;-55
2023/08/21 05:07:15;;;;;;;;;;;24.10;72.30;;;;;;5055335;28;19912;-55
2023/08/21 05:09:40;;;;;;;;;;;24.10;72.20;;;;;;5051257;28;19917;-54
2023/08/21 05:12:07;;;;;;;;;;;24.10;72.00;;;;;;5051017;28;20010;-55
2023/08/21 05:14:32;;;;;;;;;;;24.10;71.80;;;;;;5016690;28;20349;-55
2023/08/21 05:16:58;;;;;;;;;;;24.10;72.00;;;;;;5049899;28;19920;-55
2023/08/21 05:19:24;;;;;;;;;;;24.10;71.90;;;;;;5035293;28;19951;-55
2023/08/21 05:21:49;;;;;;;;;;;24.10;72.00;;;;;;5054596;28;20380;-55
2023/08/21 05:24:15;;;;;;;;;;;24.10;71.70;;;;;;5051649;28;20368;-55
2023/08/21 05:26:40;;;;;;;;;;;24.10;71.90;;;;;;5042826;28;19987;-55
2023/08/21 05:29:06;;;;;;;;;;;24.10;71.90;;;;;;5033884;28;19909;-55
2023/08/21 05:31:31;;;;;;;;;;;24.10;71.90;;;;;;5033258;28;19925;-55
2023/08/21 05:33:57;;;;;;;;;;;24.10;72.00;;;;;;5034247;28;20011;-55
2023/08/21 05:36:22;;;;;;;;;;;24.10;72.20;;;;;;5040436;28;19920;-55
2023/08/21 05:38:50;;;;;;;;;;;24.10;72.10;;;;;;5034338;28;19909;-55
2023/08/21 05:41:16;;;;;;;;;;;24.10;72.10;;;;;;5036250;28;20349;-55
2023/08/21 05:43:42;;;;;;;;;;;24.10;72.30;;;;;;5033885;28;19909;-56
2023/08/21 05:46:07;;;;;;;;;;;24.00;72.30;;;;;;5032925;28;19948;-54
2023/08/21 05:48:33;;;;;;;;;;;24.00;72.50;;;;;;5033816;28;19909;-55
2023/08/21 05:50:59;;;;;;;;;;;24.00;72.40;;;;;;5033219;28;19993;-55
2023/08/21 05:53:24;;;;;;;;;;;24.00;72.40;;;;;;5032935;28;19943;-55
2023/08/21 05:55:50;;;;;;;;;;;24.00;72.80;;;;;;5029832;28;19983;-55
2023/08/21 05:58:15;;;;;;;;;;;24.00;72.70;;;;;;5033844;28;19909;-54
2023/08/21 06:00:41;;;;;;;;;;;24.00;72.80;;;;;;5029405;28;19917;-54
2023/08/21 06:03:06;;;;;;;;;;;24.00;72.70;;;;;;5028685;28;19913;-56
2023/08/21 06:05:32;;;;;;;;;;;24.00;72.80;;;;;;5048478;28;19925;-56
2023/08/21 06:07:57;;;;;;;;;;;24.00;72.90;;;;;;5034461;28;20456;-55
2023/08/21 06:10:22;;;;;;;;;;;24.00;72.90;;;;;;5036529;28;20004;-55
2023/08/21 06:12:48;;;;;;;;;;;24.00;72.90;;;;;;5045590;28;20415;-56
2023/08/21 06:15:13;;;;;;;;;;;24.00;72.90;;;;;;5039621;28;19913;-56
2023/08/21 06:17:39;;;;;;;;;;;24.00;73.00;;;;;;5031141;28;20488;-56
2023/08/21 06:20:13;;;;;;;;;;;24.00;73.00;;;;;;5050326;28;20289;-56
2023/08/21 06:22:39;;;;;;;;;;;24.00;72.90;;;;;;5038389;28;19959;-56
2023/08/21 06:25:04;;;;;;;;;;;24.00;72.90;;;;;;5031223;28;19921;-56
2023/08/21 06:27:30;;;;;;;;;;;24.00;73.00;;;;;;5034931;28;19921;-56
2023/08/21 06:29:55;;;;;;;;;;;24.00;73.00;;;;;;5026842;28;19917;-56
2023/08/21 06:32:21;;;;;;;;;;;24.00;73.10;;;;;;5030753;28;19940;-56
2023/08/21 06:34:46;;;;;;;;;;;24.00;73.00;;;;;;5031174;28;19927;-56
2023/08/21 06:37:12;;;;;;;;;;;24.00;72.90;;;;;;5029955;28;19914;-56
2023/08/21 06:39:38;;;;;;;;;;;24.00;73.00;;;;;;5025085;28;19913;-56
2023/08/21 06:42:03;;;;;;;;;;;24.00;73.00;;;;;;5029393;28;20305;-56
2023/08/21 06:44:29;;;;;;;;;;;24.00;73.10;;;;;;5031557;28;20309;-56
2023/08/21 06:46:54;;;;;;;;;;;24.00;73.10;;;;;;5031332;28;20324;-56
2023/08/21 06:49:20;;;;;;;;;;;24.00;73.10;;;;;;5032529;28;19955;-56
2023/08/21 06:51:45;;;;;;;;;;;24.00;73.10;;;;;;5028901;28;20015;-56
2023/08/21 06:54:11;;;;;;;;;;;24.00;73.10;;;;;;5027943;28;19917;-56
2023/08/21 06:56:38;;;;;;;;;;;24.00;72.80;;;;;;5032301;28;21482;-57
2023/08/21 06:59:03;;;;;;;;;;;24.00;72.60;;;;;;5029406;28;20032;-57
2023/08/21 07:01:29;;;;;;;;;;;24.00;72.30;;;;;;5021315;28;19917;-57
2023/08/21 07:03:55;;;;;;;;;;;24.00;72.10;;;;;;5025411;28;19918;-56
2023/08/21 07:06:20;;;;;;;;;;;24.00;71.90;;;;;;5026886;28;20003;-57
2023/08/21 07:08:46;;;;;;;;;;;24.00;71.90;;;;;;5028106;28;19967;-57
2023/08/21 07:11:12;;;;;;;;;;;24.00;71.80;;;;;;5032149;28;20015;-57
2023/08/21 07:13:37;;;;;;;;;;;24.00;71.60;;;;;;5031070;28;20320;-57
2023/08/21 07:16:04;;;;;;;;;;;24.00;71.80;;;;;;5012558;28;19913;-57
2023/08/21 07:18:31;;;;;;;;;;;24.00;71.50;;;;;;5027100;28;19924;-57
2023/08/21 07:20:56;;;;;;;;;;;24.00;71.40;;;;;;5005817;28;20000;-57
2023/08/21 07:23:22;;;;;;;;;;;23.90;71.40;;;;;;5028403;28;20349;-57
2023/08/21 07:25:47;;;;;;;;;;;24.00;71.20;;;;;;5032878;28;19913;-57
2023/08/21 07:28:13;;;;;;;;;;;24.00;70.80;;;;;;5038313;28;20369;-57
2023/08/21 07:30:39;;;;;;;;;;;24.00;70.70;;;;;;5018496;28;19964;-57
2023/08/21 07:33:05;;;;;;;;;;;24.10;71.00;;;;;;5025888;28;19917;-57
2023/08/21 07:35:30;;;;;;;;;;;24.00;70.70;;;;;;5031193;28;19917;-57
2023/08/21 07:37:56;;;;;;;;;;;24.10;70.80;;;;;;5023045;28;19917;-57
2023/08/21 07:40:21;;;;;;;;;;;24.10;70.70;;;;;;5028129;28;19913;-57
2023/08/21 07:42:47;;;;;;;;;;;24.10;70.80;;;;;;5023701;28;19913;-57
2023/08/21 07:45:12;;;;;;;;;;;24.10;70.70;;;;;;5028133;28;19920;-57
2023/08/21 07:47:38;;;;;;;;;;;24.10;70.70;;;;;;5029930;28;19913;-57
2023/08/21 07:50:04;;;;;;;;;;;24.00;70.50;;;;;;5026300;28;19936;-57
2023/08/21 07:52:30;;;;;;;;;;;24.00;70.30;;;;;;5029790;28;20316;-57
2023/08/21 07:54:55;;;;;;;;;;;24.10;70.30;;;;;;5031510;28;19921;-57
2023/08/21 07:57:21;;;;;;;;;;;24.10;69.90;;;;;;5025813;28;19963;-57
2023/08/21 07:59:46;;;;;;;;;;;24.10;70.10;;;;;;5022104;28;19955;-56
2023/08/21 08:02:12;;;;;;;;;;;24.10;69.40;;;;;;5025862;28;19913;-57
2023/08/21 08:04:38;;;;;;;;;;;24.10;69.50;;;;;;5026934;28;19944;-57
2023/08/21 08:07:03;;;;;;;;;;;24.10;68.90;;;;;;5028623;28;19915;-57
2023/08/21 08:09:29;;;;;;;;;;;24.10;68.80;;;;;;5023234;28;19983;-57
2023/08/21 08:11:54;;;;;;;;;;;24.10;69.40;;;;;;5022059;28;19957;-57
2023/08/21 08:14:20;;;;;;;;;;;24.10;68.60;;;;;;5026844;28;19909;-57
2023/08/21 08:16:45;;;;;;;;;;;24.10;68.30;;;;;;5030683;28;20023;-57
2023/08/21 08:19:11;;;;;;;;;;;24.10;68.20;;;;;;5030408;28;19920;-57
2023/08/21 08:21:36;;;;;;;;;;;24.10;68.20;;;;;;5017549;28;20016;-56
2023/08/21 08:24:02;;;;;;;;;;;24.10;68.60;;;;;;5029729;28;19917;-56
2023/08/21 08:26:27;;;;;;;;;;;24.10;68.10;;;;;;5038516;28;19975;-57
2023/08/21 08:28:53;;;;;;;;;;;24.10;68.20;;;;;;5032280;28;19956;-57
2023/08/21 08:31:18;;;;;;;;;;;24.10;68.10;;;;;;5031865;28;19924;-57
2023/08/21 08:33:44;;;;;;;;;;;24.10;68.00;;;;;;5034296;28;20279;-56
2023/08/21 08:36:09;;;;;;;;;;;24.20;67.90;;;;;;5025297;28;20392;-56
2023/08/21 08:38:35;;;;;;;;;;;24.20;67.60;;;;;;5030106;28;19913;-57
2023/08/21 08:41:01;;;;;;;;;;;24.20;68.00;;;;;;5026886;28;19920;-57
2023/08/21 08:43:26;;;;;;;;;;;24.20;67.10;;;;;;5029678;28;20163;-55
2023/08/21 08:45:52;;;;;;;;;;;24.20;67.00;;;;;;5033585;28;19913;-57
2023/08/21 08:48:17;;;;;;;;;;;24.30;67.00;;;;;;5028589;28;19948;-54
2023/08/21 08:50:43;;;;;;;;;;;24.30;67.00;;;;;;5034088;28;19924;-56
2023/08/21 08:53:08;;;;;;;;;;;24.30;66.10;;;;;;5029768;28;19928;-56
2023/08/21 08:55:33;;;;;;;;;;;24.30;66.20;;;;;;5034002;28;19912;-57
2023/08/21 08:57:59;;;;;;;;;;;24.30;66.30;;;;;;5041411;28;19916;-56
2023/08/21 09:00:25;;;;;;;;;;;24.30;66.40;;;;;;5045464;28;20422;-57
2023/08/21 09:02:51;;;;;;;;;;;24.40;65.60;;;;;;5043409;28;20332;-57
2023/08/21 09:05:16;;;;;;;;;;;24.40;65.50;;;;;;5029520;28;19913;-54
2023/08/21 09:07:42;;;;;;;;;;;24.40;65.60;;;;;;5033676;28;20288;-55
2023/08/21 09:10:15;;;;;;;;;;;24.40;65.70;;;;;;5032464;28;20293;-55
2023/08/21 09:12:40;;;;;;;;;;;24.40;65.70;;;;;;5034539;28;19920;-54
2023/08/21 09:15:06;;;;;;;;;;;24.40;65.80;;;;;;5034225;28;19913;-54
2023/08/21 09:17:32;;;;;;;;;;;24.50;65.10;;;;;;5026843;28;19932;-55
2023/08/21 09:20:03;;;;;;;;;;;24.50;65.00;;;;;;5033875;28;19909;-55
2023/08/21 09:22:28;;;;;;;;;;;24.60;65.30;;;;;;5040582;28;19918;-54
2023/08/21 09:25:00;;;;;;;;;;;24.60;65.00;;;;;;5033861;28;19995;-56
2023/08/21 09:27:25;;;;;;;;;;;24.60;64.60;;;;;;5046291;28;20314;-54
2023/08/21 09:29:51;;;;;;;;;;;24.60;64.90;;;;;;5043695;28;19925;-54
2023/08/21 09:32:16;;;;;;;;;;;24.60;64.10;;;;;;5046474;28;20273;-54
2023/08/21 09:34:42;;;;;;;;;;;24.60;63.50;;;;;;5053989;28;20295;-54
2023/08/21 09:37:07;;;;;;;;;;;24.60;64.10;;;;;;5047495;28;19917;-54
2023/08/21 09:39:33;;;;;;;;;;;24.60;64.40;;;;;;5053836;28;19913;-55
2023/08/21 09:42:00;;;;;;;;;;;24.60;64.80;;;;;;5050339;28;20409;-54
2023/08/21 09:44:26;;;;;;;;;;;24.70;64.40;;;;;;5049177;28;19917;-55
2023/08/21 09:46:51;;;;;;;;;;;24.70;64.90;;;;;;5043419;28;19916;-55
2023/08/21 09:49:16;;;;;;;;;;;24.80;64.60;;;;;;5040422;28;19920;-55
2023/08/21 09:51:44;;;;;;;;;;;24.80;64.20;;;;;;5049137;28;19917;-54
2023/08/21 09:54:10;;;;;;;;;;;24.90;64.20;;;;;;5012021;28;20035;-55
2023/08/21 09:56:36;;;;;;;;;;;24.90;63.80;;;;;;5051768;28;19968;-55
2023/08/21 09:59:02;;;;;;;;;;;24.90;63.70;;;;;;5051729;28;19970;-55
2023/08/21 10:01:27;;;;;;;;;;;24.90;63.20;;;;;;5038914;28;19916;-55
2023/08/21 10:03:53;;;;;;;;;;;24.90;63.30;;;;;;5029650;28;19975;-55
2023/08/21 10:06:18;;;;;;;;;;;24.80;63.00;;;;;;5027577;28;19923;-55
2023/08/21 10:08:44;;;;;;;;;;;24.90;63.20;;;;;;5049892;28;19928;-54
2023/08/21 10:11:09;;;;;;;;;;;24.90;63.10;;;;;;5046713;28;19921;-55
2023/08/21 10:13:36;;;;;;;;;;;24.90;63.20;;;;;;5028180;28;19962;-54
2023/08/21 10:16:02;;;;;;;;;;;25.00;63.00;;;;;;5032846;28;19920;-55
2023/08/21 10:18:34;;;;;;;;;;;25.00;63.10;;;;;;5044659;28;19909;-55
2023/08/21 10:21:12;;;;;;;;;;;25.00;62.40;;;;;;5031141;28;19917;-55
2023/08/21 10:23:38;;;;;;;;;;;25.00;63.00;;;;;;5052661;28;20307;-56
2023/08/21 10:26:07;;;;;;;;;;;25.00;62.70;;;;;;5043537;28;20020;-56
2023/08/21 10:28:42;;;;;;;;;;;25.00;62.80;;;;;;5031679;28;19923;-56
2023/08/21 10:31:24;;;;;;;;;;;25.10;62.40;;;;;;5016200;28;19914;-56
2023/08/21 10:33:50;;;;;;;;;;;25.20;62.20;;;;;;5013215;28;19924;-54
2023/08/21 10:36:23;;;;;;;;;;;25.20;62.00;;;;;;5013710;28;20004;-54
2023/08/21 10:38:58;;;;;;;;;;;25.30;62.10;;;;;;5010857;28;20274;-54
2023/08/21 10:41:25;;;;;;;;;;;25.20;61.80;;;;;;5029615;28;19913;-58
2023/08/21 10:43:51;;;;;;;;;;;25.20;61.80;;;;;;4998679;28;20000;-54
2023/08/21 10:46:16;;;;;;;;;;;25.30;61.60;;;;;;5032462;28;20008;-54
2023/08/21 10:48:42;;;;;;;;;;;25.30;60.30;;;;;;5032626;28;19920;-54
2023/08/21 10:51:08;;;;;;;;;;;25.20;60.70;;;;;;5028450;28;19920;-55
2023/08/21 10:53:34;;;;;;;;;;;25.30;60.00;;;;;;5031448;28;19983;-55
2023/08/21 10:56:03;;;;;;;;;;;25.30;60.00;;;;;;5028641;28;20352;-53
2023/08/21 10:58:28;;;;;;;;;;;25.20;60.40;;;;;;5027175;28;19931;-55
2023/08/21 11:00:58;;;;;;;;;;;25.20;60.60;;;;;;5019477;28;19913;-55
2023/08/21 11:03:23;;;;;;;;;;;25.30;60.50;;;;;;5006467;28;19953;-55
2023/08/21 11:06:04;;;;;;;;;;;25.20;60.40;;;;;;5013033;28;19975;-54
2023/08/21 11:08:31;;;;;;;;;;;25.20;59.90;;;;;;5030051;28;19917;-53
2023/08/21 11:10:56;;;;;;;;;;;25.20;60.30;;;;;;5028931;28;20373;-55
2023/08/21 11:13:25;;;;;;;;;;;25.30;60.00;;;;;;5006294;28;19928;-55
2023/08/21 11:16:00;;;;;;;;;;;25.30;60.10;;;;;;5030234;28;19960;-54
2023/08/21 11:18:40;;;;;;;;;;;25.40;60.10;;;;;;5025404;28;19917;-54
2023/08/21 11:21:06;;;;;;;;;;;25.40;60.10;;;;;;5032769;28;19975;-54
2023/08/21 11:23:32;;;;;;;;;;;25.50;59.80;;;;;;5028604;28;19960;-55
2023/08/21 11:25:58;;;;;;;;;;;25.50;59.80;;;;;;5031757;28;19921;-55
2023/08/21 11:28:23;;;;;;;;;;;25.50;59.90;;;;;;5021908;28;19963;-55
2023/08/21 11:30:49;;;;;;;;;;;25.50;59.90;;;;;;5034649;28;19921;-55
2023/08/21 11:33:14;;;;;;;;;;;25.50;59.50;;;;;;5032313;28;19935;-55
2023/08/21 11:35:40;;;;;;;;;;;25.50;58.90;;;;;;5032589;28;19974;-55
2023/08/21 11:38:05;;;;;;;;;;;25.60;59.10;;;;;;5030133;28;19913;-55
2023/08/21 11:40:34;;;;;;;;;;;25.70;59.00;;;;;;5031688;28;20011;-55
2023/08/21 11:43:00;;;;;;;;;;;25.60;58.80;;;;;;5030927;28;19921;-55
2023/08/21 11:45:25;;;;;;;;;;;25.70;59.00;;;;;;5030325;28;19923;-55
2023/08/21 11:47:51;;;;;;;;;;;25.70;58.90;;;;;;5030344;28;19913;-55
2023/08/21 11:50:19;;;;;;;;;;;25.70;59.20;;;;;;5031899;28;19913;-55
2023/08/21 11:52:45;;;;;;;;;;;25.70;58.90;;;;;;5031264;28;19917;-56
2023/08/21 11:55:10;;;;;;;;;;;25.80;58.40;;;;;;5025477;28;19917;-55
2023/08/21 11:57:45;;;;;;;;;;;25.90;58.10;;;;;;5022309;28;19917;-55
2023/08/21 12:00:11;;;;;;;;;;;26.00;57.70;;;;;;5030358;28;19937;-55
2023/08/21 12:02:36;;;;;;;;;;;25.90;58.20;;;;;;5031724;28;20401;-55
2023/08/21 12:05:05;;;;;;;;;;;25.80;58.30;;;;;;5031156;28;19923;-55
2023/08/21 12:07:31;;;;;;;;;;;25.80;58.60;;;;;;5031230;28;19920;-55
2023/08/21 12:09:57;;;;;;;;;;;25.80;58.50;;;;;;5032375;28;19955;-54
2023/08/21 12:12:22;;;;;;;;;;;25.80;57.80;;;;;;5036300;28;19956;-55
2023/08/21 12:14:48;;;;;;;;;;;25.90;57.50;;;;;;5049469;28;19913;-55
2023/08/21 12:17:13;;;;;;;;;;;25.90;56.70;;;;;;5035279;28;19920;-55
2023/08/21 12:19:39;;;;;;;;;;;25.80;57.00;;;;;;5035631;28;20020;-55
2023/08/21 12:22:04;;;;;;;;;;;25.80;56.90;;;;;;5033170;28;19917;-55
2023/08/21 12:24:30;;;;;;;;;;;25.80;57.00;;;;;;5032869;28;19927;-55
2023/08/21 12:26:56;;;;;;;;;;;25.90;56.50;;;;;;5043718;28;19943;-54
2023/08/21 12:29:21;;;;;;;;;;;25.80;56.70;;;;;;5024517;28;20722;-54
2023/08/21 12:31:47;;;;;;;;;;;25.80;56.70;;;;;;5035965;28;19913;-55
2023/08/21 12:34:12;;;;;;;;;;;25.80;56.30;;;;;;5041974;28;20008;-55
2023/08/21 12:36:38;;;;;;;;;;;25.90;56.40;;;;;;5050480;28;19927;-55
2023/08/21 12:39:04;;;;;;;;;;;25.90;55.90;;;;;;5053767;28;20000;-55
2023/08/21 12:41:29;;;;;;;;;;;26.00;55.20;;;;;;5056169;28;19971;-54
2023/08/21 12:43:55;;;;;;;;;;;26.10;55.50;;;;;;5032097;28;19917;-55
2023/08/21 12:46:20;;;;;;;;;;;26.10;55.30;;;;;;5035699;28;19956;-55
2023/08/21 12:48:46;;;;;;;;;;;26.10;54.30;;;;;;5023540;28;20011;-55
2023/08/21 12:51:11;;;;;;;;;;;26.20;54.00;;;;;;5044461;28;20454;-55
2023/08/21 12:53:37;;;;;;;;;;;26.20;53.80;;;;;;5038429;28;19924;-54
2023/08/21 12:56:02;;;;;;;;;;;26.20;53.60;;;;;;5052435;28;19913;-55
2023/08/21 12:58:28;;;;;;;;;;;26.20;53.30;;;;;;5052226;28;19917;-54
2023/08/21 13:00:54;;;;;;;;;;;26.20;53.70;;;;;;5054021;28;19909;-54
2023/08/21 13:03:20;;;;;;;;;;;26.20;53.90;;;;;;5053750;28;19935;-54
2023/08/21 13:05:45;;;;;;;;;;;26.20;53.30;;;;;;5055048;28;19920;-54
2023/08/21 13:08:11;;;;;;;;;;;26.20;53.20;;;;;;5050851;28;19940;-54
2023/08/21 13:10:36;;;;;;;;;;;26.20;53.40;;;;;;5045372;28;20288;-54
2023/08/21 13:13:02;;;;;;;;;;;26.20;53.00;;;;;;5029449;28;20002;-54
2023/08/21 13:15:28;;;;;;;;;;;26.20;52.70;;;;;;5052113;28;19917;-55
2023/08/21 13:17:54;;;;;;;;;;;26.20;52.70;;;;;;5049436;28;19936;-54
2023/08/21 13:20:19;;;;;;;;;;;26.20;52.50;;;;;;5049949;28;19963;-55
2023/08/21 13:22:48;;;;;;;;;;;26.10;52.10;;;;;;5050983;28;20003;-55
2023/08/21 13:25:14;;;;;;;;;;;26.20;52.10;;;;;;5054905;28;20003;-55
2023/08/21 13:27:40;;;;;;;;;;;26.20;51.90;;;;;;5038005;28;19929;-55
2023/08/21 13:30:06;;;;;;;;;;;26.20;51.10;;;;;;5033656;28;19913;-54
2023/08/21 13:32:31;;;;;;;;;;;26.10;51.20;;;;;;5033146;28;19921;-55
2023/08/21 13:34:56;;;;;;;;;;;26.10;51.20;;;;;;5032767;28;20312;-54
2023/08/21 13:37:23;;;;;;;;;;;26.10;51.60;;;;;;5031804;28;19924;-55
2023/08/21 13:39:48;;;;;;;;;;;26.10;51.50;;;;;;5030703;28;19920;-54
2023/08/21 13:42:14;;;;;;;;;;;26.20;51.10;;;;;;5034782;28;19913;-55
2023/08/21 13:44:39;;;;;;;;;;;26.20;51.10;;;;;;5021408;28;19953;-54
2023/08/21 13:47:05;;;;;;;;;;;26.30;51.00;;;;;;5015051;28;19918;-55
2023/08/21 13:49:30;;;;;;;;;;;26.30;51.10;;;;;;5029486;28;20377;-55
2023/08/21 13:51:56;;;;;;;;;;;26.40;50.90;;;;;;5029800;28;20012;-55
2023/08/21 13:54:21;;;;;;;;;;;26.40;51.30;;;;;;5026863;28;20389;-55
2023/08/21 13:56:47;;;;;;;;;;;26.30;50.60;;;;;;5032784;28;20373;-55
2023/08/21 13:59:12;;;;;;;;;;;26.30;50.70;;;;;;5024415;28;20266;-55
2023/08/21 14:01:37;;;;;;;;;;;26.30;50.50;;;;;;5027321;28;20480;-54
2023/08/21 14:04:03;;;;;;;;;;;26.30;50.00;;;;;;5033201;28;19936;-55
2023/08/21 14:06:29;;;;;;;;;;;26.30;49.80;;;;;;5032711;28;19920;-55
2023/08/21 14:08:55;;;;;;;;;;;26.30;50.00;;;;;;5015793;28;19913;-54